Time;durP1;ratioP1;P1;durP2;ratioP2;P2;SDS_P1;SDS_P2;PMS_P1;PMS_P2;Temp;Humidity;BMP_temperature;BMP_pressure;BME280_temperature;BME280_humidity;BME280_pressure;Samples;Min_cycle;Max_cycle;Signal;HPM_P1;HPM_P2
2022/10/20 00:01:07;;;;;;;13.77;8.63;;;11.70;99.90;;;;;;475472;249;28508;-72
2022/10/20 00:03:08;;;;;;;11.23;7.57;;;11.70;99.90;;;;;;475615;250;28382;-71
2022/10/20 00:05:09;;;;;;;11.27;8.30;;;11.70;99.90;;;;;;475613;250;28333;-71
2022/10/20 00:07:11;;;;;;;8.67;7.00;;;11.60;99.90;;;;;;475571;250;27986;-70
2022/10/20 00:09:12;;;;;;;8.50;6.73;;;11.60;99.90;;;;;;475614;250;27867;-70
2022/10/20 00:11:13;;;;;;;7.83;6.43;;;11.60;99.90;;;;;;475615;250;27773;-70
2022/10/20 00:13:14;;;;;;;7.83;6.27;;;11.50;99.90;;;;;;475611;250;27945;-71
2022/10/20 00:15:16;;;;;;;7.13;6.03;;;11.50;99.90;;;;;;475604;250;27757;-71
2022/10/20 00:17:17;;;;;;;7.83;5.70;;;11.50;99.90;;;;;;475570;250;28069;-71
2022/10/20 00:19:18;;;;;;;9.87;6.43;;;11.50;99.90;;;;;;475598;249;27788;-72
2022/10/20 00:21:19;;;;;;;8.37;7.10;;;11.50;99.90;;;;;;475610;250;27996;-72
2022/10/20 00:23:21;;;;;;;9.57;6.50;;;11.50;99.90;;;;;;475610;250;28004;-70
2022/10/20 00:25:22;;;;;;;10.07;7.23;;;11.50;99.90;;;;;;475623;250;28360;-71
2022/10/20 00:27:23;;;;;;;12.67;9.80;;;11.40;99.90;;;;;;475574;250;28254;-69
2022/10/20 00:29:24;;;;;;;14.00;9.97;;;11.40;99.90;;;;;;475606;250;27743;-70
2022/10/20 00:31:26;;;;;;;13.00;9.80;;;11.40;99.90;;;;;;475599;250;27890;-72
2022/10/20 00:33:27;;;;;;;13.17;9.30;;;11.40;99.90;;;;;;475601;250;27853;-69
2022/10/20 00:35:28;;;;;;;9.73;7.27;;;11.40;99.90;;;;;;475610;250;27873;-71
2022/10/20 00:37:29;;;;;;;13.90;8.83;;;11.50;99.90;;;;;;475574;250;27824;-70
2022/10/20 00:39:31;;;;;;;9.53;7.47;;;11.50;99.90;;;;;;475598;250;27958;-71
2022/10/20 00:41:32;;;;;;;11.23;7.73;;;11.50;99.90;;;;;;475608;250;27978;-72
2022/10/20 00:43:33;;;;;;;10.43;7.63;;;11.50;99.90;;;;;;475601;250;28501;-71
2022/10/20 00:45:34;;;;;;;8.00;6.90;;;11.50;99.90;;;;;;475612;243;28445;-72
2022/10/20 00:47:36;;;;;;;10.27;7.50;;;11.50;99.90;;;;;;475571;250;28405;-70
2022/10/20 00:49:37;;;;;;;9.53;7.37;;;11.50;99.90;;;;;;475601;250;27630;-72
2022/10/20 00:51:38;;;;;;;11.70;9.20;;;11.50;99.90;;;;;;475615;250;27882;-72
2022/10/20 00:53:39;;;;;;;11.87;9.10;;;11.50;99.90;;;;;;475608;250;28069;-71
2022/10/20 00:55:41;;;;;;;14.03;8.73;;;11.50;99.90;;;;;;475612;250;28014;-71
2022/10/20 00:57:42;;;;;;;12.70;9.43;;;11.50;99.90;;;;;;475554;244;27871;-71
2022/10/20 00:59:43;;;;;;;10.67;8.00;;;11.50;99.90;;;;;;475587;250;28011;-71
2022/10/20 01:01:44;;;;;;;8.63;7.63;;;11.50;99.90;;;;;;475587;250;28424;-73
2022/10/20 01:03:46;;;;;;;13.00;8.60;;;11.50;99.90;;;;;;475607;250;28325;-71
2022/10/20 01:05:47;;;;;;;9.30;6.90;;;11.50;99.90;;;;;;475607;250;28317;-71
2022/10/20 01:07:48;;;;;;;10.83;8.13;;;11.50;99.90;;;;;;475565;250;28348;-70
2022/10/20 01:09:49;;;;;;;10.00;7.63;;;11.50;99.90;;;;;;475596;250;27944;-71
2022/10/20 01:11:51;;;;;;;11.30;7.40;;;11.50;99.90;;;;;;475608;250;27883;-72
2022/10/20 01:13:52;;;;;;;11.50;8.50;;;11.60;99.90;;;;;;475597;250;27973;-70
2022/10/20 01:15:53;;;;;;;14.03;9.17;;;11.60;99.90;;;;;;475600;250;27892;-70
2022/10/20 01:17:54;;;;;;;11.90;8.93;;;11.60;99.90;;;;;;475555;250;27718;-70
2022/10/20 01:19:57;;;;;;;9.50;7.83;;;11.60;99.90;;;;;;475577;250;27912;-70
2022/10/20 01:21:57;;;;;;;12.17;7.80;;;11.60;99.90;;;;;;475571;250;28422;-71
2022/10/20 01:24:00;;;;;;;9.70;8.30;;;11.60;99.90;;;;;;475602;250;28467;-71
2022/10/20 01:25:59;;;;;;;8.60;7.13;;;11.60;99.90;;;;;;475529;250;28499;-71
2022/10/20 01:28:01;;;;;;;9.33;6.70;;;11.60;99.90;;;;;;475569;250;27769;-69
2022/10/20 01:30:02;;;;;;;8.27;6.53;;;11.60;99.90;;;;;;475603;250;27987;-70
2022/10/20 01:32:03;;;;;;;6.40;5.73;;;11.60;99.90;;;;;;475600;250;27758;-72
2022/10/20 01:34:04;;;;;;;8.87;6.47;;;11.60;99.90;;;;;;475592;250;27867;-70
2022/10/20 01:36:06;;;;;;;6.33;5.47;;;11.60;99.90;;;;;;475578;250;27884;-70
2022/10/20 01:38:07;;;;;;;9.47;6.50;;;11.60;99.90;;;;;;475594;250;27866;-70
2022/10/20 01:40:08;;;;;;;8.83;7.03;;;11.60;99.90;;;;;;475589;250;27867;-70
2022/10/20 01:42:09;;;;;;;11.90;8.37;;;11.60;99.90;;;;;;475610;250;27886;-72
2022/10/20 01:44:11;;;;;;;13.57;10.03;;;11.50;99.90;;;;;;475593;250;27900;-70
2022/10/20 01:46:12;;;;;;;15.23;8.90;;;11.60;99.90;;;;;;475560;250;28469;-71
2022/10/20 01:48:13;;;;;;;10.67;7.80;;;11.60;99.90;;;;;;475595;250;28355;-69
2022/10/20 01:50:14;;;;;;;11.30;7.77;;;11.60;99.90;;;;;;475596;250;27874;-71
2022/10/20 01:52:16;;;;;;;9.17;6.77;;;11.60;99.90;;;;;;475607;250;27895;-70
2022/10/20 01:54:17;;;;;;;10.37;7.43;;;11.60;99.90;;;;;;475609;250;27729;-70
2022/10/20 01:56:18;;;;;;;7.50;6.80;;;11.60;99.90;;;;;;475549;250;28082;-70
2022/10/20 01:58:20;;;;;;;8.47;6.20;;;11.60;99.90;;;;;;475604;243;27766;-70
2022/10/20 02:00:21;;;;;;;10.57;7.13;;;11.60;99.90;;;;;;475606;250;27875;-71
2022/10/20 02:02:22;;;;;;;8.43;7.03;;;11.60;99.90;;;;;;475598;250;27876;-71
2022/10/20 02:04:23;;;;;;;10.33;8.20;;;11.60;99.90;;;;;;475613;250;28081;-71
2022/10/20 02:06:25;;;;;;;11.27;8.30;;;11.60;99.90;;;;;;475559;250;28547;-70
2022/10/20 02:08:26;;;;;;;9.20;6.87;;;11.60;99.90;;;;;;475597;250;28342;-70
2022/10/20 02:10:27;;;;;;;8.00;6.60;;;11.70;99.90;;;;;;475597;250;28362;-71
2022/10/20 02:12:28;;;;;;;9.60;6.87;;;11.70;99.90;;;;;;475569;250;27755;-70
2022/10/20 02:14:32;;;;;;;10.40;8.40;;;11.60;99.90;;;;;;475563;250;28008;-70
2022/10/20 02:16:31;;;;;;;10.60;8.70;;;11.70;99.90;;;;;;475413;250;27889;-71
2022/10/20 02:18:32;;;;;;;11.70;8.00;;;11.70;99.90;;;;;;475574;243;27862;-69
2022/10/20 02:20:33;;;;;;;13.43;8.80;;;11.70;99.90;;;;;;475587;250;28017;-70
2022/10/20 02:22:35;;;;;;;13.03;9.50;;;11.60;99.90;;;;;;475586;250;27893;-73
2022/10/20 02:24:36;;;;;;;17.57;11.90;;;11.60;99.90;;;;;;475594;250;28058;-70
2022/10/20 02:26:37;;;;;;;14.60;10.43;;;11.60;99.90;;;;;;475552;250;28538;-71
2022/10/20 02:28:38;;;;;;;14.27;9.63;;;11.60;99.90;;;;;;475590;250;28538;-70
2022/10/20 02:30:40;;;;;;;18.13;10.83;;;11.70;99.90;;;;;;475623;243;27843;-70
2022/10/20 02:32:41;;;;;;;14.03;10.77;;;11.60;99.90;;;;;;475602;250;28078;-70
2022/10/20 02:34:42;;;;;;;15.60;10.67;;;11.60;99.90;;;;;;475627;250;27919;-70
2022/10/20 02:36:44;;;;;;;14.47;9.90;;;11.60;99.90;;;;;;475579;250;28128;-70
2022/10/20 02:38:45;;;;;;;13.53;9.63;;;11.70;99.90;;;;;;475627;250;27872;-69
2022/10/20 02:40:46;;;;;;;15.20;11.10;;;11.70;99.90;;;;;;475603;250;28477;-71
2022/10/20 02:42:47;;;;;;;13.23;9.70;;;11.70;99.90;;;;;;475621;250;28670;-70
2022/10/20 02:44:48;;;;;;;13.60;9.63;;;11.70;99.90;;;;;;475617;250;28558;-70
2022/10/20 02:46:50;;;;;;;14.13;10.87;;;11.70;99.90;;;;;;475574;250;28174;-70
2022/10/20 02:48:51;;;;;;;16.13;10.90;;;11.70;99.90;;;;;;475612;250;27877;-70
2022/10/20 02:50:52;;;;;;;15.10;10.73;;;11.70;99.90;;;;;;475625;250;28049;-70
2022/10/20 02:52:53;;;;;;;18.73;10.90;;;11.60;99.90;;;;;;475623;250;28004;-70
2022/10/20 02:54:55;;;;;;;15.80;10.20;;;11.60;99.90;;;;;;475623;250;27877;-69
2022/10/20 02:56:56;;;;;;;10.03;7.83;;;11.60;99.90;;;;;;475565;250;28530;-71
2022/10/20 02:58:57;;;;;;;11.23;8.47;;;11.60;99.90;;;;;;475601;249;28565;-69
2022/10/20 03:00:58;;;;;;;12.13;8.90;;;11.70;99.90;;;;;;475605;250;27863;-70
2022/10/20 03:03:00;;;;;;;9.73;8.43;;;11.60;99.90;;;;;;475615;250;27975;-70
2022/10/20 03:05:01;;;;;;;10.23;8.90;;;11.70;99.90;;;;;;475596;250;28069;-70
2022/10/20 03:07:02;;;;;;;11.10;8.63;;;11.60;99.90;;;;;;475567;250;28009;-71
2022/10/20 03:09:04;;;;;;;9.43;7.80;;;11.60;99.90;;;;;;475613;250;28028;-70
2022/10/20 03:11:05;;;;;;;9.87;7.53;;;11.70;99.90;;;;;;475613;250;27848;-70
2022/10/20 03:13:06;;;;;;;9.70;6.60;;;11.70;99.90;;;;;;475614;249;28196;-70
2022/10/20 03:15:07;;;;;;;9.07;7.40;;;11.70;99.90;;;;;;475607;250;28114;-70
2022/10/20 03:17:08;;;;;;;9.67;7.13;;;11.70;99.90;;;;;;475559;250;28124;-72
2022/10/20 03:19:10;;;;;;;8.33;6.50;;;11.60;99.90;;;;;;475612;250;28348;-70
2022/10/20 03:21:11;;;;;;;9.23;7.53;;;11.70;99.90;;;;;;475610;250;28550;-70
2022/10/20 03:23:12;;;;;;;9.00;7.43;;;11.60;99.90;;;;;;475619;250;28560;-69
2022/10/20 03:25:13;;;;;;;9.87;6.83;;;11.60;99.90;;;;;;475615;250;28009;-71
2022/10/20 03:27:15;;;;;;;9.07;6.80;;;11.60;99.90;;;;;;475572;250;28070;-72
2022/10/20 03:29:16;;;;;;;9.03;6.90;;;11.60;99.90;;;;;;475612;250;27847;-70
2022/10/20 03:31:17;;;;;;;8.30;6.30;;;11.60;99.90;;;;;;475604;250;28022;-70
2022/10/20 03:33:18;;;;;;;10.43;7.27;;;11.60;99.90;;;;;;475613;250;27881;-70
2022/10/20 03:35:20;;;;;;;9.20;7.00;;;11.60;99.90;;;;;;475614;250;28006;-70
2022/10/20 03:37:21;;;;;;;8.27;6.70;;;11.60;99.90;;;;;;475568;250;28009;-71
2022/10/20 03:39:22;;;;;;;10.77;7.13;;;11.60;99.90;;;;;;475609;250;28012;-69
2022/10/20 03:41:23;;;;;;;6.77;6.03;;;11.60;99.90;;;;;;475591;250;28562;-70
2022/10/20 03:43:25;;;;;;;7.90;6.80;;;11.60;99.90;;;;;;475607;250;28309;-70
2022/10/20 03:45:26;;;;;;;9.93;5.93;;;11.60;99.90;;;;;;475614;250;28564;-71
2022/10/20 03:47:27;;;;;;;8.30;6.70;;;11.60;99.90;;;;;;475576;250;27899;-71
2022/10/20 03:49:30;;;;;;;6.80;6.07;;;11.60;99.90;;;;;;475619;250;28080;-69
2022/10/20 03:51:30;;;;;;;9.40;6.90;;;11.60;99.90;;;;;;475546;250;27894;-70
2022/10/20 03:53:31;;;;;;;9.50;7.60;;;11.50;99.90;;;;;;475614;250;27884;-70
2022/10/20 03:55:32;;;;;;;11.80;8.20;;;11.50;99.90;;;;;;475612;250;27889;-70
2022/10/20 03:57:33;;;;;;;17.10;9.97;;;11.50;99.90;;;;;;475566;250;28004;-71
2022/10/20 03:59:35;;;;;;;12.20;9.37;;;11.30;99.90;;;;;;475606;250;27979;-69
2022/10/20 04:01:36;;;;;;;13.23;9.47;;;11.30;99.90;;;;;;475604;250;27870;-71
2022/10/20 04:03:37;;;;;;;11.57;8.80;;;11.30;99.90;;;;;;475614;250;28336;-69
2022/10/20 04:05:38;;;;;;;11.27;7.77;;;11.40;99.90;;;;;;475604;250;28445;-71
2022/10/20 04:07:40;;;;;;;15.83;10.93;;;11.30;99.90;;;;;;475562;250;28383;-72
2022/10/20 04:09:41;;;;;;;11.50;8.10;;;11.30;99.90;;;;;;475610;250;28052;-70
2022/10/20 04:11:42;;;;;;;13.13;8.93;;;11.30;99.90;;;;;;475609;250;27951;-71
2022/10/20 04:13:44;;;;;;;10.77;8.37;;;11.30;99.90;;;;;;475605;250;28089;-70
2022/10/20 04:15:45;;;;;;;12.43;9.03;;;11.30;99.90;;;;;;475611;250;27733;-70
2022/10/20 04:17:46;;;;;;;14.13;9.63;;;11.30;99.90;;;;;;475573;250;27887;-72
2022/10/20 04:19:47;;;;;;;17.33;9.23;;;11.30;99.90;;;;;;475599;250;27901;-69
2022/10/20 04:21:49;;;;;;;14.67;9.73;;;11.20;99.90;;;;;;475596;250;28456;-71
2022/10/20 04:23:50;;;;;;;13.40;9.80;;;11.20;99.90;;;;;;475607;250;28127;-71
2022/10/20 04:25:51;;;;;;;16.73;10.70;;;11.20;99.90;;;;;;475609;250;27894;-70
2022/10/20 04:27:52;;;;;;;15.97;10.73;;;11.20;99.90;;;;;;475570;250;27634;-71
2022/10/20 04:29:54;;;;;;;17.00;11.00;;;11.20;99.90;;;;;;475608;250;27878;-69
2022/10/20 04:31:55;;;;;;;12.93;9.50;;;11.20;99.90;;;;;;475606;250;27767;-71
2022/10/20 04:33:56;;;;;;;12.80;9.70;;;11.20;99.90;;;;;;475607;250;27755;-69
2022/10/20 04:35:57;;;;;;;14.67;9.70;;;11.20;99.90;;;;;;475602;250;28052;-71
2022/10/20 04:37:59;;;;;;;11.37;7.93;;;11.20;99.90;;;;;;475567;250;28101;-70
2022/10/20 04:40:00;;;;;;;10.37;8.20;;;11.30;99.90;;;;;;475611;250;28299;-70
2022/10/20 04:42:01;;;;;;;13.90;8.10;;;11.30;99.90;;;;;;475598;250;28314;-71
2022/10/20 04:44:02;;;;;;;9.47;7.33;;;11.30;99.90;;;;;;475606;250;27860;-69
2022/10/20 04:46:04;;;;;;;11.80;8.47;;;11.20;99.90;;;;;;475590;250;27757;-72
2022/10/20 04:48:05;;;;;;;11.27;7.83;;;11.20;99.90;;;;;;475591;250;27857;-71
2022/10/20 04:50:06;;;;;;;11.03;7.57;;;11.30;99.90;;;;;;475600;243;27971;-69
2022/10/20 04:52:07;;;;;;;7.27;6.23;;;11.30;99.90;;;;;;475607;250;27742;-71
2022/10/20 04:54:09;;;;;;;8.40;6.73;;;11.20;99.90;;;;;;475613;250;27840;-69
2022/10/20 04:56:10;;;;;;;9.43;6.33;;;11.20;99.90;;;;;;475564;250;27870;-71
2022/10/20 04:58:11;;;;;;;8.80;6.63;;;11.20;99.90;;;;;;475606;250;28459;-71
2022/10/20 05:00:12;;;;;;;6.70;5.73;;;11.20;99.90;;;;;;475604;250;28330;-69
2022/10/20 05:02:14;;;;;;;6.90;6.07;;;11.20;99.90;;;;;;475596;250;28323;-70
2022/10/20 05:04:20;;;;;;;7.70;6.10;;;11.20;99.90;;;;;;475598;250;28404;-71
2022/10/20 05:06:19;;;;;;;7.40;6.23;;;11.20;99.90;;;;;;475414;250;27888;-70
2022/10/20 05:08:20;;;;;;;7.73;6.30;;;11.20;99.90;;;;;;475604;250;27772;-70
2022/10/20 05:10:21;;;;;;;7.27;5.30;;;11.20;99.90;;;;;;475612;250;27893;-71
2022/10/20 05:12:23;;;;;;;6.30;5.70;;;11.20;99.90;;;;;;475597;250;28077;-72
2022/10/20 05:14:24;;;;;;;7.17;6.33;;;11.20;99.90;;;;;;475606;250;28289;-71
2022/10/20 05:16:25;;;;;;;12.60;8.47;;;11.20;99.90;;;;;;475561;250;28085;-69
2022/10/20 05:18:26;;;;;;;7.83;6.67;;;11.20;99.90;;;;;;475601;250;28236;-70
2022/10/20 05:20:28;;;;;;;12.00;7.77;;;11.20;99.90;;;;;;475612;250;27595;-70
2022/10/20 05:22:29;;;;;;;11.23;7.60;;;11.10;99.90;;;;;;475591;250;28062;-71
2022/10/20 05:24:30;;;;;;;11.30;8.33;;;11.10;99.90;;;;;;475610;250;27748;-70
2022/10/20 05:26:33;;;;;;;11.20;7.80;;;11.10;99.90;;;;;;475563;250;27949;-70
2022/10/20 05:28:33;;;;;;;11.40;7.90;;;11.10;99.90;;;;;;475511;250;27828;-72
2022/10/20 05:30:34;;;;;;;14.10;9.13;;;11.10;99.90;;;;;;475603;249;27903;-70
2022/10/20 05:32:35;;;;;;;13.63;9.60;;;11.10;99.90;;;;;;475595;250;27916;-70
2022/10/20 05:34:37;;;;;;;10.60;8.10;;;11.10;99.90;;;;;;475593;250;28455;-71
2022/10/20 05:36:38;;;;;;;12.90;8.47;;;11.10;99.90;;;;;;475520;243;28358;-70
2022/10/20 05:38:39;;;;;;;12.13;8.70;;;11.00;99.90;;;;;;475605;250;27879;-71
2022/10/20 05:40:40;;;;;;;12.50;8.17;;;11.10;99.90;;;;;;475609;250;27754;-70
2022/10/20 05:42:41;;;;;;;9.10;6.57;;;11.00;99.90;;;;;;475592;250;27835;-70
2022/10/20 05:44:43;;;;;;;7.93;6.43;;;11.10;99.90;;;;;;475603;250;27879;-70
2022/10/20 05:46:44;;;;;;;7.80;6.90;;;11.00;99.90;;;;;;475561;250;27841;-71
2022/10/20 05:48:45;;;;;;;8.00;6.03;;;11.00;99.90;;;;;;475605;250;27844;-71
2022/10/20 05:50:46;;;;;;;8.37;6.20;;;11.00;99.90;;;;;;475606;250;27879;-69
2022/10/20 05:52:48;;;;;;;7.23;5.90;;;11.00;99.90;;;;;;475605;250;27754;-70
2022/10/20 05:54:49;;;;;;;7.70;6.30;;;11.00;99.90;;;;;;475602;250;27540;-71
2022/10/20 05:56:50;;;;;;;7.87;6.43;;;11.00;99.90;;;;;;475552;250;28343;-70
2022/10/20 05:58:51;;;;;;;8.97;6.67;;;11.00;99.90;;;;;;475593;250;28200;-70
2022/10/20 06:00:53;;;;;;;9.50;7.57;;;11.00;99.90;;;;;;475600;250;28316;-69
2022/10/20 06:02:54;;;;;;;7.80;6.17;;;11.00;99.90;;;;;;475597;250;27603;-70
2022/10/20 06:04:55;;;;;;;9.77;6.50;;;11.00;99.90;;;;;;475619;250;27891;-71
2022/10/20 06:06:56;;;;;;;7.43;6.10;;;11.00;99.90;;;;;;475590;250;27881;-70
2022/10/20 06:08:58;;;;;;;7.13;6.03;;;10.90;99.90;;;;;;475610;250;27760;-71
2022/10/20 06:10:59;;;;;;;9.13;6.50;;;10.90;99.90;;;;;;475626;250;27825;-69
2022/10/20 06:13:00;;;;;;;7.37;6.37;;;11.00;99.90;;;;;;475619;250;27869;-72
2022/10/20 06:15:01;;;;;;;8.80;6.90;;;11.00;99.90;;;;;;475627;250;27386;-71
2022/10/20 06:17:03;;;;;;;11.20;8.20;;;10.90;99.90;;;;;;475579;250;27879;-70
2022/10/20 06:19:05;;;;;;;13.50;9.43;;;10.90;99.90;;;;;;475622;250;27729;-70
2022/10/20 06:21:05;;;;;;;14.33;9.43;;;10.80;99.90;;;;;;475576;250;28736;-69
2022/10/20 06:23:06;;;;;;;14.77;9.93;;;10.80;99.90;;;;;;475606;250;28440;-70
2022/10/20 06:25:08;;;;;;;16.00;9.97;;;10.80;99.90;;;;;;475622;250;27957;-71
2022/10/20 06:27:09;;;;;;;13.10;9.40;;;10.80;99.90;;;;;;475570;250;27639;-70
2022/10/20 06:29:10;;;;;;;16.40;10.50;;;10.80;99.90;;;;;;475615;250;27813;-71
2022/10/20 06:31:11;;;;;;;13.33;9.97;;;10.80;99.90;;;;;;475627;250;27528;-69
2022/10/20 06:33:15;;;;;;;14.13;9.67;;;10.80;99.90;;;;;;475615;250;27751;-70
2022/10/20 06:35:14;;;;;;;13.80;10.20;;;10.80;99.90;;;;;;475489;250;27781;-71
2022/10/20 06:37:15;;;;;;;11.87;9.57;;;10.80;99.90;;;;;;475570;250;28235;-70
2022/10/20 06:39:17;;;;;;;11.20;9.00;;;10.90;99.90;;;;;;475616;250;28333;-70
2022/10/20 06:41:18;;;;;;;17.53;9.60;;;11.00;99.90;;;;;;475612;243;28359;-70
2022/10/20 06:43:19;;;;;;;12.63;10.07;;;11.00;99.90;;;;;;475613;250;28059;-70
2022/10/20 06:45:20;;;;;;;14.43;11.03;;;11.00;99.90;;;;;;475620;250;27744;-71
2022/10/20 06:47:22;;;;;;;14.20;9.97;;;11.00;99.90;;;;;;475587;250;27626;-71
2022/10/20 06:49:23;;;;;;;12.20;8.93;;;11.00;99.90;;;;;;475615;250;27872;-69
2022/10/20 06:51:24;;;;;;;12.17;9.33;;;11.10;99.90;;;;;;475611;250;27980;-69
2022/10/20 06:53:25;;;;;;;11.73;8.93;;;11.20;99.90;;;;;;475610;250;27797;-70
2022/10/20 06:55:27;;;;;;;9.90;7.17;;;11.30;99.90;;;;;;475607;250;28464;-71
2022/10/20 06:57:28;;;;;;;9.40;7.30;;;11.30;99.90;;;;;;475573;250;28347;-70
2022/10/20 06:59:29;;;;;;;9.43;7.17;;;11.40;99.90;;;;;;475616;250;28426;-71
2022/10/20 07:01:30;;;;;;;9.10;7.47;;;11.50;99.90;;;;;;475619;250;28077;-69
2022/10/20 07:03:32;;;;;;;7.73;6.33;;;11.50;99.90;;;;;;475608;250;27961;-70
2022/10/20 07:05:34;;;;;;;10.23;6.80;;;11.60;99.90;;;;;;475620;250;27832;-71
2022/10/20 07:07:34;;;;;;;9.63;6.63;;;11.60;99.90;;;;;;475524;250;28016;-70
2022/10/20 07:09:35;;;;;;;8.70;6.73;;;11.50;99.90;;;;;;475620;250;27908;-71
2022/10/20 07:11:37;;;;;;;9.33;7.30;;;11.60;99.90;;;;;;475607;250;27891;-70
2022/10/20 07:13:38;;;;;;;8.37;6.67;;;11.60;99.90;;;;;;475610;250;28129;-70
2022/10/20 07:15:39;;;;;;;8.83;7.23;;;11.70;99.90;;;;;;475626;250;28206;-71
2022/10/20 07:17:40;;;;;;;8.60;6.60;;;11.70;99.90;;;;;;475573;250;28477;-70
2022/10/20 07:19:42;;;;;;;7.87;5.80;;;11.70;99.90;;;;;;475619;250;28466;-72
2022/10/20 07:21:43;;;;;;;10.30;7.67;;;11.80;99.90;;;;;;475607;250;28565;-70
2022/10/20 07:23:44;;;;;;;13.10;8.47;;;11.70;99.90;;;;;;475606;249;28088;-70
2022/10/20 07:25:45;;;;;;;12.23;8.33;;;11.60;99.90;;;;;;475613;250;28059;-72
2022/10/20 07:27:47;;;;;;;9.60;7.40;;;11.70;99.90;;;;;;475577;250;27889;-70
2022/10/20 07:29:48;;;;;;;8.57;7.07;;;11.80;99.90;;;;;;475618;250;28076;-70
2022/10/20 07:31:49;;;;;;;7.60;6.83;;;11.90;99.90;;;;;;475626;250;27970;-70
2022/10/20 07:33:50;;;;;;;7.40;6.37;;;12.00;99.90;;;;;;475614;250;28080;-71
2022/10/20 07:35:52;;;;;;;8.03;6.17;;;12.10;99.90;;;;;;475626;250;28026;-71
2022/10/20 07:37:53;;;;;;;10.23;6.83;;;12.10;99.90;;;;;;475580;250;28131;-70
2022/10/20 07:39:54;;;;;;;11.33;7.53;;;12.10;99.90;;;;;;475606;250;28497;-71
2022/10/20 07:41:55;;;;;;;11.37;7.47;;;12.10;99.90;;;;;;475610;250;28678;-70
2022/10/20 07:43:57;;;;;;;8.10;6.67;;;12.20;99.90;;;;;;475607;250;28461;-70
2022/10/20 07:45:58;;;;;;;9.50;7.10;;;12.30;99.90;;;;;;475619;250;28061;-72
2022/10/20 07:47:59;;;;;;;5.90;5.30;;;12.40;99.90;;;;;;475582;250;28121;-70
2022/10/20 07:50:00;;;;;;;7.37;5.70;;;12.50;99.90;;;;;;475613;250;28308;-70
2022/10/20 07:52:02;;;;;;;7.90;6.03;;;12.50;99.90;;;;;;475618;250;28288;-70
2022/10/20 07:54:03;;;;;;;7.10;5.73;;;12.50;99.90;;;;;;475601;250;27947;-72
2022/10/20 07:56:04;;;;;;;5.30;4.80;;;12.50;99.90;;;;;;475582;250;28107;-72
2022/10/20 07:58:05;;;;;;;6.73;5.47;;;12.40;99.90;;;;;;475589;250;28413;-71
2022/10/20 08:00:07;;;;;;;5.90;5.07;;;12.40;99.90;;;;;;475602;250;28322;-70
2022/10/20 08:02:08;;;;;;;7.50;5.60;;;12.40;99.90;;;;;;475602;250;28342;-70
2022/10/20 08:04:09;;;;;;;5.73;5.13;;;12.50;99.90;;;;;;475590;250;28718;-72
2022/10/20 08:06:10;;;;;;;6.20;5.60;;;12.50;99.90;;;;;;475560;250;28866;-72
2022/10/20 08:08:12;;;;;;;5.47;4.97;;;12.60;99.90;;;;;;475609;250;28701;-70
2022/10/20 08:10:13;;;;;;;5.97;5.37;;;12.60;99.90;;;;;;475602;246;28143;-71
2022/10/20 08:12:14;;;;;;;5.73;5.17;;;12.70;99.90;;;;;;475607;250;28334;-69
2022/10/20 08:14:15;;;;;;;5.57;5.07;;;12.80;99.90;;;;;;475606;250;28232;-70
2022/10/20 08:16:17;;;;;;;6.43;5.83;;;12.80;99.90;;;;;;475571;250;28666;-71
2022/10/20 08:20:19;;;;;;;5.40;4.80;;;13.00;99.90;;;;;;467100;254;29412;-73
2022/10/20 08:22:21;;;;;;;5.30;4.80;;;;;;;;;;477357;249;27505;-71
2022/10/20 08:24:22;;;;;;;5.80;5.00;;;12.90;99.90;;;;;;475474;250;27776;-70
2022/10/20 08:26:24;;;;;;;5.80;5.20;;;12.90;99.90;;;;;;475435;250;28079;-70
2022/10/20 08:28:25;;;;;;;7.73;5.77;;;12.90;99.90;;;;;;475471;250;28487;-69
2022/10/20 08:30:26;;;;;;;5.60;5.03;;;12.90;99.90;;;;;;475480;250;28049;-70
2022/10/20 08:32:27;;;;;;;6.17;5.20;;;12.90;99.90;;;;;;475487;250;28147;-72
2022/10/20 08:34:30;;;;;;;5.30;4.80;;;;;;;;;;475479;250;28231;-71
2022/10/20 08:36:31;;;;;;;5.73;4.60;;;13.00;99.90;;;;;;475451;250;28000;-70
2022/10/20 08:38:32;;;;;;;5.60;4.67;;;13.10;99.90;;;;;;475472;250;28759;-69
2022/10/20 08:40:35;;;;;;;5.10;4.60;;;;;;;;;;475477;250;28362;-69
2022/10/20 08:42:36;;;;;;;5.10;4.60;;;13.10;99.90;;;;;;475475;250;26614;-70
2022/10/20 08:44:37;;;;;;;6.50;4.70;;;13.20;99.90;;;;;;475462;250;28249;-70
2022/10/20 08:46:40;;;;;;;5.37;4.87;;;;;;;;;;475424;250;28566;-71
2022/10/20 08:48:41;;;;;;;6.23;5.00;;;13.30;99.90;;;;;;475472;250;26517;-71
2022/10/20 08:50:42;;;;;;;7.53;5.60;;;13.30;99.90;;;;;;472303;251;28225;-70
2022/10/20 08:52:45;;;;;;;6.37;4.97;;;;;;;;;;473857;250;28257;-70
2022/10/20 08:54:46;;;;;;;4.90;4.40;;;13.30;99.90;;;;;;475476;250;27089;-71
2022/10/20 08:56:47;;;;;;;5.43;4.93;;;13.40;99.90;;;;;;475441;250;28283;-71
2022/10/20 08:58:49;;;;;;;6.00;4.90;;;13.40;99.90;;;;;;475468;250;28757;-70
2022/10/20 09:00:51;;;;;;;8.10;5.70;;;13.50;99.90;;;;;;475479;250;28690;-70
2022/10/20 09:02:53;;;;;;;5.17;4.73;;;13.50;99.90;;;;;;475469;250;28764;-71
2022/10/20 09:04:53;;;;;;;5.63;4.70;;;13.50;99.90;;;;;;475455;250;29155;-70
2022/10/20 09:06:56;;;;;;;5.90;5.30;;;;;;;;;;475435;250;28133;-70
2022/10/20 09:08:57;;;;;;;5.70;5.10;;;13.60;99.90;;;;;;475473;250;26622;-70
2022/10/20 09:10:58;;;;;;;6.97;5.37;;;13.70;99.90;;;;;;475477;250;28879;-70
2022/10/20 09:12:59;;;;;;;8.77;5.60;;;13.80;99.90;;;;;;475474;247;28814;-70
2022/10/20 09:15:01;;;;;;;8.50;5.10;;;13.90;99.90;;;;;;475478;250;28628;-72
2022/10/20 09:17:02;;;;;;;5.83;5.23;;;14.00;99.90;;;;;;475427;250;28629;-70
2022/10/20 09:19:03;;;;;;;6.20;5.70;;;14.10;99.90;;;;;;475476;250;28239;-70
2022/10/20 09:21:04;;;;;;;6.30;5.50;;;14.40;99.90;;;;;;475431;250;28382;-70
2022/10/20 09:23:06;;;;;;;5.50;4.83;;;14.60;99.90;;;;;;484081;246;28220;-70
2022/10/20 09:25:07;;;;;;;7.20;4.87;;;14.80;99.90;;;;;;484057;246;28451;-71
2022/10/20 09:27:08;;;;;;;6.27;5.30;;;15.00;99.90;;;;;;483991;246;28844;-70
2022/10/20 09:29:09;;;;;;;6.30;5.63;;;15.10;99.90;;;;;;484069;246;28573;-71
2022/10/20 09:31:11;;;;;;;7.87;4.77;;;15.20;99.90;;;;;;484060;246;28789;-73
2022/10/20 09:33:12;;;;;;;5.20;4.70;;;15.30;99.90;;;;;;484075;246;28207;-70
2022/10/20 09:35:13;;;;;;;5.40;4.90;;;15.30;99.90;;;;;;484073;246;28767;-71
2022/10/20 09:37:14;;;;;;;6.53;5.27;;;15.50;99.90;;;;;;484015;246;29209;-70
2022/10/20 09:39:16;;;;;;;5.90;4.40;;;15.60;99.90;;;;;;484064;246;29227;-70
2022/10/20 09:41:17;;;;;;;7.77;4.73;;;15.70;99.90;;;;;;484054;246;29338;-70
2022/10/20 09:43:18;;;;;;;5.43;4.90;;;15.70;99.90;;;;;;484067;246;28834;-71
2022/10/20 09:45:20;;;;;;;5.20;4.80;;;15.70;99.90;;;;;;484066;246;28771;-72
2022/10/20 09:47:21;;;;;;;5.20;4.80;;;15.70;99.90;;;;;;483971;246;28757;-71
2022/10/20 09:49:22;;;;;;;5.57;5.07;;;15.70;99.90;;;;;;484072;246;28820;-70
2022/10/20 09:51:23;;;;;;;5.23;4.70;;;15.60;99.90;;;;;;484061;246;28757;-70
2022/10/20 09:53:24;;;;;;;5.30;4.83;;;15.60;99.90;;;;;;484064;246;28764;-71
2022/10/20 09:55:26;;;;;;;8.13;4.73;;;15.60;99.90;;;;;;484064;246;28850;-72
2022/10/20 09:57:27;;;;;;;5.20;4.70;;;15.50;99.90;;;;;;484034;246;28855;-71
2022/10/20 09:59:28;;;;;;;6.03;5.07;;;15.40;99.90;;;;;;484071;246;28765;-70
2022/10/20 10:01:29;;;;;;;4.80;4.40;;;15.40;99.90;;;;;;484070;246;29386;-70
2022/10/20 10:03:31;;;;;;;6.23;5.20;;;15.40;99.90;;;;;;484063;246;29222;-70
2022/10/20 10:05:32;;;;;;;5.00;4.60;;;15.50;99.90;;;;;;484059;246;29295;-71
2022/10/20 10:07:33;;;;;;;5.57;4.73;;;15.60;99.90;;;;;;484016;246;29317;-70
2022/10/20 10:09:34;;;;;;;5.03;4.60;;;15.60;99.90;;;;;;484074;246;28820;-71
2022/10/20 10:11:36;;;;;;;4.53;4.10;;;15.80;99.90;;;;;;484073;246;28865;-72
2022/10/20 10:13:37;;;;;;;5.47;4.83;;;15.80;99.90;;;;;;484063;246;28757;-71
2022/10/20 10:15:38;;;;;;;6.37;5.40;;;15.80;99.90;;;;;;484073;246;28768;-71
2022/10/20 10:17:39;;;;;;;6.03;5.43;;;15.80;99.90;;;;;;484023;246;28865;-70
2022/10/20 10:19:41;;;;;;;5.27;4.77;;;15.90;99.90;;;;;;484071;246;28834;-70
2022/10/20 10:21:42;;;;;;;9.20;4.97;;;15.90;99.90;;;;;;484048;242;28750;-72
2022/10/20 10:23:43;;;;;;;7.80;5.90;;;16.00;99.90;;;;;;484050;246;28750;-73
2022/10/20 10:25:44;;;;;;;6.00;4.93;;;16.00;99.90;;;;;;484064;246;29310;-71
2022/10/20 10:27:46;;;;;;;5.27;4.77;;;16.00;99.90;;;;;;484029;246;29238;-70
2022/10/20 10:29:47;;;;;;;7.83;5.30;;;16.00;99.90;;;;;;484064;246;29225;-70